Terminal Aerodrome Forecast
Issued by NWS Charleston, WV

Current Version | Previous Version | Graphics & Text | Print | Product List | Glossary On
Versions: 1 2 3 4 5 6 7 8 9 10 11 12 13 14 15 16 17 18 19 20 21 22 23
000
FTUS41 KRLX 281606 AAA
TAFPKB
TAF AMD
KPKB 281606Z 2816/2912 19005KT P6SM BKN014
     FM281700 22006KT P6SM BKN025
     FM281900 25007KT P6SM VCTS BKN025CB
     FM290000 29005KT 4SM -SHRA BR BKN025
     FM290300 VRB03KT 4SM BR BKN016
     FM290800 VRB03KT 3SM BR OVC008=

USA.gov is the U.S. government's official web portal to all federal, state and local government web resources and services.